createdAt,value
2018-01-28T00:01:00.077Z,21.10
2018-01-28T00:03:26.503Z,21.60
2018-01-28T00:05:52.934Z,21.60
2018-01-28T00:08:20.119Z,22.40
2018-01-28T00:10:46.504Z,22.20
2018-01-28T00:13:12.862Z,22.30
2018-01-28T00:15:39.248Z,22.30
2018-01-28T00:18:05.849Z,22.50
2018-01-28T00:20:32.201Z,22.40
2018-01-28T00:22:58.542Z,22.60
2018-01-28T00:25:24.931Z,22.60
2018-01-28T00:27:51.301Z,22.50
2018-01-28T00:30:17.742Z,22.80
2018-01-28T00:32:44.119Z,23.30
2018-01-28T00:35:10.507Z,23.10
2018-01-28T00:37:36.853Z,23.30
2018-01-28T00:40:03.242Z,23.10
2018-01-28T00:42:29.611Z,23.20
2018-01-28T00:44:55.968Z,23.20
2018-01-28T00:47:29.147Z,23.20
2018-01-28T00:49:55.515Z,23.20
2018-01-28T00:52:21.846Z,23.30
2018-01-28T00:54:48.212Z,23.30
2018-01-28T00:57:14.773Z,23.30
2018-01-28T00:59:41.115Z,23.30
2018-01-28T01:02:07.478Z,23.40
2018-01-28T01:04:33.877Z,23.40
2018-01-28T01:07:00.207Z,23.50
2018-01-28T01:09:26.571Z,23.40
2018-01-28T01:11:52.926Z,23.40
2018-01-28T01:14:19.378Z,23.50
2018-01-28T01:16:45.750Z,23.50
2018-01-28T01:19:12.110Z,23.40
2018-01-28T01:21:38.477Z,23.30
2018-01-28T01:36:09.192Z,22.60
2018-01-28T01:38:35.578Z,22.50
2018-01-28T01:41:02.038Z,22.30
2018-01-28T01:43:28.395Z,22.20
2018-01-28T01:45:54.830Z,21.80
2018-01-28T01:48:21.212Z,22.00
2018-01-28T01:50:47.572Z,21.90
2018-01-28T01:53:13.981Z,21.70
2018-01-28T01:55:40.354Z,21.80
2018-01-28T01:58:06.768Z,21.10
2018-01-28T02:00:33.166Z,21.20
2018-01-28T02:03:00.295Z,21.20
2018-01-28T02:05:26.692Z,21.20
2018-01-28T02:07:53.072Z,21.00
2018-01-28T02:10:19.506Z,21.10
2018-01-28T02:12:45.875Z,21.10
2018-01-28T02:15:12.951Z,20.60
2018-01-28T02:17:39.346Z,20.40
2018-01-28T02:20:05.755Z,20.30
2018-01-28T02:22:32.159Z,20.50
2018-01-28T02:24:58.618Z,20.60
2018-01-28T02:27:25.018Z,19.70
2018-01-28T02:29:51.423Z,19.80
2018-01-28T02:32:17.806Z,19.40
2018-01-28T02:34:44.902Z,19.30
2018-01-28T02:37:11.250Z,19.00
2018-01-28T02:39:37.653Z,19.10
2018-01-28T02:42:04.034Z,19.30
2018-01-28T02:44:30.384Z,19.30
2018-01-28T02:46:56.751Z,18.90
2018-01-28T02:49:23.125Z,18.60
2018-01-28T02:51:49.508Z,18.60
2018-01-28T02:54:15.896Z,18.50
2018-01-28T02:56:42.243Z,18.70
2018-01-28T02:59:08.625Z,18.80
2018-01-28T03:01:35.774Z,18.40
2018-01-28T03:04:02.363Z,18.40
2018-01-28T03:06:28.722Z,18.50
2018-01-28T03:08:55.108Z,18.50
2018-01-28T03:11:22.241Z,18.40
2018-01-28T03:13:48.665Z,18.70
2018-01-28T03:16:15.052Z,18.30
2018-01-28T03:18:41.484Z,18.30
2018-01-28T03:21:07.843Z,18.40
2018-01-28T03:23:34.243Z,18.40
2018-01-28T03:26:01.337Z,18.70
2018-01-28T03:28:27.702Z,18.50
2018-01-28T03:30:54.120Z,18.50
2018-01-28T03:33:20.540Z,18.30
2018-01-28T03:35:46.932Z,18.40
2018-01-28T03:38:13.334Z,18.30
2018-01-28T03:40:39.679Z,18.30
2018-01-28T03:43:06.061Z,18.40
2018-01-28T03:45:33.173Z,18.30
2018-01-28T03:47:59.513Z,18.30
2018-01-28T03:50:25.881Z,18.10
2018-01-28T03:52:52.256Z,18.30
2018-01-28T03:55:18.620Z,17.90
2018-01-28T03:57:45.004Z,18.40
2018-01-28T04:00:12.179Z,18.30
2018-01-28T04:02:38.533Z,17.90
2018-01-28T04:05:12.015Z,18.00
2018-01-28T04:07:38.380Z,18.00
2018-01-28T04:10:04.747Z,17.90
2018-01-28T04:12:31.139Z,17.90
2018-01-28T04:14:57.513Z,18.20
2018-01-28T04:17:23.862Z,17.80
2018-01-28T04:19:50.966Z,18.20
2018-01-28T04:22:17.345Z,18.20
2018-01-28T04:24:43.762Z,18.20
2018-01-28T04:27:10.185Z,18.00
2018-01-28T04:29:36.535Z,18.00
2018-01-28T04:32:02.915Z,17.90
2018-01-28T04:34:30.096Z,18.20
2018-01-28T04:36:56.461Z,18.20
2018-01-28T04:39:22.833Z,18.20
2018-01-28T04:41:49.251Z,17.90
2018-01-28T04:44:15.610Z,17.90
2018-01-28T04:46:41.975Z,18.20
2018-01-28T04:49:09.099Z,17.90
2018-01-28T04:51:35.462Z,17.70
2018-01-28T04:54:02.568Z,17.80
2018-01-28T04:56:29.127Z,17.90
2018-01-28T04:58:55.489Z,17.90
2018-01-28T05:01:23.590Z,17.90
2018-01-28T05:03:49.975Z,18.10
2018-01-28T05:06:16.331Z,17.90
2018-01-28T05:08:43.647Z,17.90
2018-01-28T05:11:10.075Z,17.80
2018-01-28T05:13:36.488Z,17.90
2018-01-28T05:16:02.891Z,17.90
2018-01-28T05:18:29.311Z,18.00
2018-01-28T05:20:55.702Z,18.40
2018-01-28T05:23:22.131Z,18.50
2018-01-28T05:25:49.302Z,19.20
2018-01-28T05:28:15.707Z,19.00
2018-01-28T05:30:42.076Z,19.00
2018-01-28T05:33:08.422Z,19.80
2018-01-28T05:35:34.779Z,19.90
2018-01-28T05:38:01.151Z,19.80
2018-01-28T05:40:27.523Z,20.40
2018-01-28T05:42:53.883Z,20.50
2018-01-28T05:45:20.250Z,20.50
2018-01-28T05:47:46.622Z,20.50
2018-01-28T05:50:13.783Z,20.30
2018-01-28T05:52:40.139Z,20.50
2018-01-28T05:55:06.493Z,20.50
2018-01-28T05:57:32.930Z,20.50
2018-01-28T05:59:59.299Z,20.50
2018-01-28T06:02:25.685Z,20.40
2018-01-28T06:04:52.062Z,20.50
2018-01-28T06:07:18.430Z,20.40
2018-01-28T06:09:44.807Z,20.30
2018-01-28T06:12:11.211Z,20.40
2018-01-28T06:14:38.314Z,19.80
2018-01-28T06:17:04.660Z,19.60
2018-01-28T06:19:31.079Z,19.80
2018-01-28T06:21:57.460Z,19.60
2018-01-28T06:24:23.832Z,19.30
2018-01-28T06:26:50.259Z,19.00
2018-01-28T06:29:17.383Z,19.00
2018-01-28T06:31:43.720Z,19.40
2018-01-28T06:34:10.084Z,19.10
2018-01-28T06:36:37.212Z,19.30
2018-01-28T06:39:05.093Z,19.20
2018-01-28T06:41:31.500Z,19.00
2018-01-28T06:43:57.856Z,19.20
2018-01-28T06:46:24.227Z,18.80
2018-01-28T06:48:51.368Z,18.50
2018-01-28T06:51:17.732Z,18.60
2018-01-28T06:53:44.107Z,18.80
2018-01-28T06:56:10.500Z,18.80
2018-01-28T06:58:37.603Z,18.50
2018-01-28T07:01:03.958Z,18.40
2018-01-28T07:03:30.331Z,18.40
2018-01-28T07:05:56.707Z,18.40
2018-01-28T07:08:23.063Z,18.40
2018-01-28T07:10:49.452Z,18.40
2018-01-28T07:13:15.828Z,19.00
2018-01-28T07:15:42.197Z,19.10
2018-01-28T07:18:09.343Z,19.60
2018-01-28T07:20:35.714Z,19.60
2018-01-28T07:23:02.077Z,20.50
2018-01-28T07:25:28.455Z,20.50
2018-01-28T07:27:54.820Z,21.00
2018-01-28T07:30:21.208Z,20.90
2018-01-28T07:32:47.571Z,21.20
2018-01-28T07:35:20.922Z,21.60
2018-01-28T07:37:47.273Z,21.70
2018-01-28T07:40:13.704Z,21.60
2018-01-28T07:42:40.072Z,21.80
2018-01-28T07:45:06.453Z,21.70
2018-01-28T07:47:39.815Z,21.80
2018-01-28T07:50:06.205Z,21.80
2018-01-28T07:52:32.574Z,22.00
2018-01-28T07:54:58.924Z,21.90
2018-01-28T07:57:25.332Z,21.90
2018-01-28T07:59:51.727Z,21.70
2018-01-28T08:02:18.145Z,21.80
2018-01-28T08:04:51.389Z,21.80
2018-01-28T08:07:17.796Z,21.80
2018-01-28T08:12:53.502Z,21.80
2018-01-28T08:15:19.843Z,21.90
2018-01-28T08:17:46.235Z,21.80
2018-01-28T08:20:13.393Z,21.80
2018-01-28T08:22:40.519Z,21.80
2018-01-28T08:25:06.911Z,21.80
2018-01-28T08:27:35.140Z,21.70
2018-01-28T08:30:01.605Z,21.80
2018-01-28T08:32:27.972Z,21.90
2018-01-28T08:34:54.328Z,21.60
2018-01-28T08:37:20.663Z,21.60
2018-01-28T08:39:47.057Z,21.30
2018-01-28T08:42:14.203Z,21.00
2018-01-28T08:44:41.352Z,21.00
2018-01-28T08:47:08.529Z,21.00
2018-01-28T08:49:34.923Z,21.00
2018-01-28T08:52:01.314Z,20.60
2018-01-28T08:54:27.663Z,20.50
2018-01-28T08:56:54.029Z,20.30
2018-01-28T08:59:20.442Z,20.60
2018-01-28T09:01:46.777Z,20.30
2018-01-28T09:04:13.159Z,20.40
2018-01-28T09:06:39.552Z,20.40
2018-01-28T09:09:05.912Z,20.20
2018-01-28T09:11:32.251Z,19.90
2018-01-28T09:13:58.655Z,19.70
2018-01-28T09:16:24.998Z,19.90
2018-01-28T09:18:51.348Z,19.50
2018-01-28T09:21:17.725Z,19.50
2018-01-28T09:23:44.150Z,20.00
2018-01-28T09:26:10.492Z,19.80
2018-01-28T09:28:36.856Z,19.50
2018-01-28T09:31:03.262Z,19.60
2018-01-28T09:33:29.636Z,19.50
2018-01-28T09:35:56.117Z,19.10
2018-01-28T09:38:22.505Z,19.10
2018-01-28T09:40:48.902Z,19.00
2018-01-28T09:43:15.268Z,19.20
2018-01-28T09:45:42.349Z,19.20
2018-01-28T09:48:08.735Z,19.00
2018-01-28T09:50:35.102Z,19.20
2018-01-28T09:53:02.200Z,19.50
2018-01-28T09:55:28.546Z,19.40
2018-01-28T10:00:51.686Z,19.80
2018-01-28T10:03:18.135Z,19.10
2018-01-28T10:05:48.540Z,19.00
2018-01-28T10:08:14.904Z,19.00
2018-01-28T10:10:41.249Z,19.10
2018-01-28T10:13:07.614Z,19.10
2018-01-28T10:15:33.970Z,19.40
2018-01-28T10:18:01.073Z,19.60
2018-01-28T10:20:27.447Z,19.50
2018-01-28T10:22:53.798Z,19.80
2018-01-28T10:25:20.908Z,19.50
2018-01-28T10:27:47.273Z,19.70
2018-01-28T10:30:13.630Z,19.90
2018-01-28T10:32:40.814Z,19.90
2018-01-28T10:35:09.152Z,19.60
2018-01-28T10:37:35.540Z,20.00
2018-01-28T10:40:09.016Z,19.90
2018-01-28T10:42:35.371Z,19.80
2018-01-28T10:45:01.718Z,19.60
2018-01-28T10:47:28.088Z,19.70
2018-01-28T10:49:54.500Z,19.70
2018-01-28T10:52:20.899Z,19.50
2018-01-28T10:54:48.021Z,19.70
2018-01-28T10:57:18.293Z,19.60
2018-01-28T10:59:44.688Z,19.50
2018-01-28T11:02:11.067Z,19.50
2018-01-28T11:04:37.462Z,19.90
2018-01-28T11:07:03.884Z,19.90
2018-01-28T11:09:30.244Z,19.80
2018-01-28T11:11:56.603Z,19.70
2018-01-28T11:14:23.704Z,19.60
2018-01-28T11:16:50.132Z,19.90
2018-01-28T11:19:17.260Z,19.60
2018-01-28T11:21:43.719Z,19.80
2018-01-28T11:24:10.807Z,19.50
2018-01-28T11:26:37.196Z,19.90
2018-01-28T11:29:03.576Z,19.60
2018-01-28T11:31:30.010Z,19.90
2018-01-28T11:33:56.448Z,19.90
2018-01-28T11:36:22.821Z,19.70
2018-01-28T11:38:49.224Z,20.30
2018-01-28T11:41:15.656Z,20.50
2018-01-28T11:43:42.026Z,20.40
2018-01-28T11:46:08.389Z,19.90
2018-01-28T11:48:34.769Z,20.00
2018-01-28T11:51:01.345Z,19.60
2018-01-28T11:53:27.704Z,19.60
2018-01-28T11:55:54.084Z,19.70
2018-01-28T11:58:20.454Z,19.60
2018-01-28T12:00:46.800Z,19.90
2018-01-28T12:03:13.164Z,19.60
2018-01-28T12:05:39.543Z,19.80
2018-01-28T12:08:05.936Z,19.70
2018-01-28T12:10:32.280Z,19.60
2018-01-28T12:12:58.649Z,20.00
2018-01-28T12:15:25.077Z,19.90
2018-01-28T12:17:51.422Z,20.40
2018-01-28T12:20:17.777Z,20.40
2018-01-28T12:22:44.142Z,20.40
2018-01-28T12:25:10.593Z,19.60
2018-01-28T12:27:37.015Z,19.60
2018-01-28T12:30:03.462Z,19.60
2018-01-28T12:32:56.625Z,19.60
2018-01-28T12:35:23.031Z,19.50
2018-01-28T12:37:49.408Z,19.60
2018-01-28T12:40:15.801Z,19.60
2018-01-28T12:42:42.185Z,20.40
2018-01-28T12:45:09.356Z,19.90
2018-01-28T12:47:36.442Z,19.90
2018-01-28T12:50:02.830Z,19.80
2018-01-28T12:52:30.022Z,19.80
2018-01-28T12:54:56.420Z,19.40
2018-01-28T12:57:23.552Z,19.80
2018-01-28T12:59:49.920Z,19.70
2018-01-28T13:02:17.083Z,19.80
2018-01-28T13:04:44.249Z,19.80
2018-01-28T13:07:10.656Z,19.80
2018-01-28T13:09:37.020Z,19.90
2018-01-28T13:12:03.437Z,19.80
2018-01-28T13:17:26.809Z,19.50
2018-01-28T13:19:58.212Z,19.70
2018-01-28T13:22:24.596Z,19.50
2018-01-28T13:24:51.947Z,19.50
2018-01-28T13:27:36.625Z,19.60
2018-01-28T13:30:04.011Z,19.70
2018-01-28T13:32:30.364Z,19.70
2018-01-28T13:34:56.748Z,19.80
2018-01-28T13:37:23.146Z,20.00
2018-01-28T13:39:49.528Z,19.90
2018-01-28T13:42:16.701Z,20.00
2018-01-28T13:44:43.060Z,19.60
2018-01-28T13:47:09.429Z,19.80
2018-01-28T13:49:35.836Z,20.00
2018-01-28T13:52:02.197Z,20.50
2018-01-28T13:54:28.574Z,20.60
2018-01-28T13:56:55.709Z,21.10
2018-01-28T14:02:12.851Z,21.60
2018-01-28T14:04:40.037Z,21.60
2018-01-28T14:10:09.183Z,22.40
2018-01-28T14:12:35.599Z,21.80
2018-01-28T14:15:01.994Z,22.30
2018-01-28T14:17:29.175Z,22.30
2018-01-28T14:19:55.565Z,22.50
2018-01-28T14:22:21.971Z,22.30
2018-01-28T14:24:48.430Z,22.50
2018-01-28T14:27:14.787Z,22.40
2018-01-28T14:29:42.142Z,22.40
2018-01-28T14:32:10.495Z,22.40
2018-01-28T14:37:37.088Z,22.40
2018-01-28T14:40:04.189Z,21.90
2018-01-28T14:42:30.562Z,21.90
2018-01-28T14:44:57.015Z,21.80
2018-01-28T14:47:24.123Z,21.90
2018-01-28T14:49:50.464Z,21.80
2018-01-28T14:52:23.918Z,21.90
2018-01-28T14:54:51.036Z,21.60
2018-01-28T14:57:17.498Z,21.80
2018-01-28T14:59:43.955Z,21.80
2018-01-28T15:02:10.294Z,21.70
2018-01-28T15:04:36.695Z,22.00
2018-01-28T15:07:03.082Z,21.80
2018-01-28T15:09:29.419Z,21.70
2018-01-28T15:11:55.812Z,21.80
2018-01-28T15:14:27.848Z,21.70
2018-01-28T15:16:54.208Z,21.80
2018-01-28T15:19:20.628Z,21.60
2018-01-28T15:21:46.967Z,21.70
2018-01-28T15:24:13.340Z,21.60
2018-01-28T15:26:40.456Z,21.20
2018-01-28T15:29:06.819Z,21.20
2018-01-28T15:31:33.177Z,21.10
2018-01-28T15:34:00.023Z,21.20
2018-01-28T15:36:26.379Z,20.90
2018-01-28T15:38:52.767Z,21.00
2018-01-28T15:41:19.148Z,21.10
2018-01-28T15:43:45.504Z,21.00
2018-01-28T15:46:11.867Z,20.60
2018-01-28T15:48:38.268Z,20.50
2018-01-28T15:51:04.652Z,20.30
2018-01-28T15:53:31.104Z,20.00
2018-01-28T15:55:57.436Z,20.50
2018-01-28T15:58:23.900Z,20.10
2018-01-28T16:00:51.015Z,20.00
2018-01-28T16:03:17.384Z,19.90
2018-01-28T16:05:44.508Z,20.00
2018-01-28T16:08:10.885Z,19.70
2018-01-28T16:10:37.987Z,19.80
2018-01-28T16:13:04.396Z,19.90
2018-01-28T16:15:30.758Z,20.00
2018-01-28T16:17:57.136Z,20.00
2018-01-28T16:20:23.532Z,20.50
2018-01-28T16:22:50.067Z,20.50
2018-01-28T16:25:16.399Z,21.10
2018-01-28T16:27:42.761Z,21.10
2018-01-28T16:30:09.104Z,21.70
2018-01-28T16:32:35.491Z,21.70
2018-01-28T16:35:01.889Z,21.70
2018-01-28T16:37:28.264Z,21.80
2018-01-28T16:40:03.844Z,21.70
2018-01-28T16:42:30.182Z,21.80
2018-01-28T16:44:56.576Z,21.70
2018-01-28T16:47:23.721Z,21.90
2018-01-28T16:49:50.879Z,21.90
2018-01-28T16:52:17.984Z,21.80
2018-01-28T16:54:44.348Z,22.20
2018-01-28T16:57:10.736Z,22.60
2018-01-28T16:59:37.093Z,22.30
2018-01-28T17:02:03.510Z,22.10
2018-01-28T17:04:29.867Z,21.90
2018-01-28T17:06:56.257Z,21.90
2018-01-28T17:09:23.387Z,22.00
2018-01-28T17:11:49.741Z,21.70
2018-01-28T17:14:16.847Z,21.70
2018-01-28T17:16:43.266Z,21.80
2018-01-28T17:19:09.596Z,22.00
2018-01-28T17:21:35.964Z,21.70
2018-01-28T17:24:19.679Z,21.70
2018-01-28T17:26:46.089Z,21.80
2018-01-28T17:29:12.460Z,21.70
2018-01-28T17:31:38.826Z,21.70
2018-01-28T17:34:05.169Z,21.90
2018-01-28T17:36:31.519Z,21.90
2018-01-28T17:38:58.935Z,22.30
2018-01-28T17:41:25.312Z,22.30
2018-01-28T17:49:46.516Z,22.80
2018-01-28T17:52:12.873Z,22.60
2018-01-28T17:54:39.296Z,22.60
2018-01-28T17:57:05.639Z,23.40
2018-01-28T17:59:32.037Z,23.40
2018-01-28T18:01:58.420Z,23.40
2018-01-28T18:04:24.768Z,23.50
2018-01-28T18:06:51.115Z,23.20
2018-01-28T18:09:17.493Z,23.20
2018-01-28T18:11:43.832Z,23.40
2018-01-28T18:14:10.194Z,23.30
2018-01-28T18:16:36.595Z,23.10
2018-01-28T18:19:02.932Z,23.30
2018-01-28T18:21:29.291Z,22.90
2018-01-28T18:23:55.667Z,22.80
2018-01-28T18:26:22.813Z,22.60
2018-01-28T18:28:49.152Z,22.50
2018-01-28T18:31:15.528Z,22.50
2018-01-28T18:33:41.904Z,22.50
2018-01-28T18:36:08.252Z,22.00
2018-01-28T18:38:34.651Z,22.40
2018-01-28T18:41:01.047Z,22.30
2018-01-28T18:43:28.145Z,22.40
2018-01-28T18:45:54.488Z,22.60
2018-01-28T18:48:20.812Z,22.40
2018-01-28T18:50:47.196Z,22.40
2018-01-28T18:53:13.654Z,22.00
2018-01-28T18:55:40.758Z,22.40
2018-01-28T18:58:07.137Z,22.50
2018-01-28T19:00:34.307Z,21.90
2018-01-28T19:03:01.395Z,21.80
2018-01-28T19:05:27.762Z,21.80
2018-01-28T19:07:54.160Z,21.80
2018-01-28T19:10:20.545Z,21.80
2018-01-28T19:12:46.904Z,21.80
2018-01-28T19:15:14.040Z,21.70
2018-01-28T19:17:40.435Z,21.80
2018-01-28T19:20:06.826Z,21.70
2018-01-28T19:22:33.961Z,21.20
2018-01-28T19:25:00.360Z,21.60
2018-01-28T19:27:26.743Z,21.10
2018-01-28T19:29:53.164Z,21.20
2018-01-28T19:32:19.628Z,20.60
2018-01-28T19:34:46.012Z,20.50
2018-01-28T19:37:12.386Z,20.50
2018-01-28T19:39:38.814Z,20.40
2018-01-28T19:42:05.201Z,20.20
2018-01-28T19:44:32.301Z,20.50
2018-01-28T19:46:58.673Z,20.40
2018-01-28T19:49:25.046Z,20.50
2018-01-28T19:51:51.640Z,20.60
2018-01-28T19:54:18.013Z,20.70
2018-01-28T19:56:44.376Z,21.00
2018-01-28T19:59:10.785Z,20.90
2018-01-28T20:01:37.444Z,20.90
2018-01-28T20:04:04.120Z,21.20
2018-01-28T20:06:30.489Z,21.20
2018-01-28T20:08:56.828Z,21.20
2018-01-28T20:11:23.233Z,21.70
2018-01-28T20:13:49.642Z,21.90
2018-01-28T20:16:15.996Z,21.90
2018-01-28T20:18:42.420Z,22.10
2018-01-28T20:21:08.799Z,21.80
2018-01-28T20:23:35.147Z,22.00
2018-01-28T20:26:01.540Z,21.90
2018-01-28T20:28:27.906Z,22.00
2018-01-28T20:30:54.272Z,22.40
2018-01-28T20:33:21.393Z,22.40
2018-01-28T20:35:47.823Z,22.40
2018-01-28T20:38:14.194Z,22.70
2018-01-28T20:40:40.675Z,22.70
2018-01-28T20:43:07.022Z,22.40
2018-01-28T20:45:33.424Z,22.50
2018-01-28T20:48:00.532Z,22.40
2018-01-28T20:50:26.925Z,22.60
2018-01-28T20:52:53.349Z,22.60
2018-01-28T20:55:20.429Z,21.90
2018-01-28T20:57:46.841Z,22.30
2018-01-28T21:00:14.052Z,21.90
2018-01-28T21:02:40.416Z,21.80
2018-01-28T21:05:06.789Z,21.90
2018-01-28T21:07:33.206Z,21.80
2018-01-28T21:10:00.309Z,21.70
2018-01-28T21:12:26.690Z,21.70
2018-01-28T21:14:53.120Z,21.40
2018-01-28T21:17:19.523Z,21.20
2018-01-28T21:19:45.963Z,21.20
2018-01-28T21:22:12.348Z,21.20
2018-01-28T21:24:39.463Z,21.10
2018-01-28T21:27:05.819Z,20.70
2018-01-28T21:29:32.964Z,20.60
2018-01-28T21:31:59.312Z,20.60
2018-01-28T21:34:25.689Z,20.40
2018-01-28T21:36:52.126Z,20.50
2018-01-28T21:39:18.508Z,20.40
2018-01-28T21:41:44.848Z,20.10
2018-01-28T21:44:11.238Z,20.10
2018-01-28T21:46:37.614Z,19.80
2018-01-28T21:49:04.152Z,20.00
2018-01-28T21:51:30.506Z,19.70
2018-01-28T21:53:56.856Z,20.10
2018-01-28T21:56:23.947Z,19.80
2018-01-28T21:58:50.318Z,19.90
2018-01-28T22:01:16.752Z,19.90
2018-01-28T22:03:43.141Z,20.00
2018-01-28T22:06:10.278Z,20.00
2018-01-28T22:08:36.661Z,19.90
2018-01-28T22:11:03.162Z,19.60
2018-01-28T22:13:29.499Z,19.80
2018-01-28T22:15:55.855Z,19.90
2018-01-28T22:18:23.025Z,19.80
2018-01-28T22:20:49.523Z,19.90
2018-01-28T22:23:15.920Z,19.60
2018-01-28T22:25:42.345Z,19.80
2018-01-28T22:28:08.731Z,19.10
2018-01-28T22:30:35.128Z,19.50
2018-01-28T22:33:01.508Z,19.40
2018-01-28T22:35:27.920Z,19.10
2018-01-28T22:37:54.334Z,19.10
2018-01-28T22:40:20.700Z,19.40
2018-01-28T22:42:47.139Z,19.10
2018-01-28T22:45:13.507Z,19.30
2018-01-28T22:47:40.672Z,19.40
2018-01-28T22:50:07.778Z,19.10
2018-01-28T22:52:34.134Z,19.30
2018-01-28T22:55:00.518Z,19.00
2018-01-28T22:57:26.908Z,19.00
2018-01-28T22:59:53.317Z,19.30
2018-01-28T23:02:19.705Z,18.90
2018-01-28T23:04:46.139Z,19.40
2018-01-28T23:07:12.511Z,19.00
2018-01-28T23:09:38.915Z,19.00
2018-01-28T23:12:05.324Z,19.30
2018-01-28T23:14:31.664Z,19.00
2018-01-28T23:16:58.072Z,19.10
2018-01-28T23:19:24.514Z,19.20
2018-01-28T23:21:50.912Z,19.10
2018-01-28T23:24:18.047Z,18.60
2018-01-28T23:26:44.398Z,19.00
2018-01-28T23:29:10.883Z,18.60
2018-01-28T23:31:37.282Z,19.20
2018-01-28T23:34:04.416Z,18.90
2018-01-28T23:36:30.798Z,19.30
2018-01-28T23:38:57.159Z,18.50
2018-01-28T23:41:23.561Z,18.60
2018-01-28T23:43:50.703Z,18.90
2018-01-28T23:46:17.840Z,18.70
2018-01-28T23:48:44.248Z,18.50
2018-01-28T23:51:10.595Z,18.50
2018-01-28T23:53:36.975Z,18.50
2018-01-28T23:56:04.100Z,18.50
2018-01-28T23:58:30.523Z,18.50
